sensor_id;sensor_type;location;lat;lon;timestamp;pressure;altitude;pressure_sealevel;temperature;humidity
6389;BME280;3227;42.654;23.360;2023-04-23T00:00:18;94401.44;;;10.93;77.90
6389;BME280;3227;42.654;23.360;2023-04-23T00:02:47;94398.03;;;10.88;78.46
6389;BME280;3227;42.654;23.360;2023-04-23T00:05:18;94379.28;;;10.74;78.44
6389;BME280;3227;42.654;23.360;2023-04-23T00:07:46;94397.19;;;10.93;76.79
6389;BME280;3227;42.654;23.360;2023-04-23T00:10:13;94379.28;;;10.83;75.85
6389;BME280;3227;42.654;23.360;2023-04-23T00:12:40;94385.22;;;10.88;76.25
6389;BME280;3227;42.654;23.360;2023-04-23T00:15:09;94384.41;;;10.86;76.09
6389;BME280;3227;42.654;23.360;2023-04-23T00:17:37;94395.50;;;10.80;76.71
6389;BME280;3227;42.654;23.360;2023-04-23T00:20:07;94343.47;;;10.58;76.20
6389;BME280;3227;42.654;23.360;2023-04-23T00:22:34;94384.38;;;10.90;76.32
6389;BME280;3227;42.654;23.360;2023-04-23T00:25:01;94390.34;;;10.94;76.14
6389;BME280;3227;42.654;23.360;2023-04-23T00:27:28;94398.88;;;10.93;75.89
6389;BME280;3227;42.654;23.360;2023-04-23T00:29:55;94390.34;;;10.91;75.81
6389;BME280;3227;42.654;23.360;2023-04-23T00:32:22;94392.06;;;10.87;76.28
6389;BME280;3227;42.654;23.360;2023-04-23T00:34:48;94392.09;;;10.81;76.50
6389;BME280;3227;42.654;23.360;2023-04-23T00:37:17;94386.97;;;10.86;76.13
6389;BME280;3227;42.654;23.360;2023-04-23T00:39:44;94380.09;;;10.89;75.91
6389;BME280;3227;42.654;23.360;2023-04-23T00:42:11;94384.38;;;10.92;75.96
6389;BME280;3227;42.654;23.360;2023-04-23T00:44:39;94390.34;;;10.88;75.40
6389;BME280;3227;42.654;23.360;2023-04-23T00:47:07;94383.53;;;10.82;75.10
6389;BME280;3227;42.654;23.360;2023-04-23T00:49:34;94388.66;;;10.84;74.84
6389;BME280;3227;42.654;23.360;2023-04-23T00:52:01;94377.56;;;10.82;74.24
6389;BME280;3227;42.654;23.360;2023-04-23T00:54:29;94392.97;;;10.73;73.97
6389;BME280;3227;42.654;23.360;2023-04-23T00:56:56;94382.75;;;10.62;73.91
6389;BME280;3227;42.654;23.360;2023-04-23T00:59:24;94386.19;;;10.50;74.36
6389;BME280;3227;42.654;23.360;2023-04-23T01:01:51;94382.78;;;10.50;74.45
6389;BME280;3227;42.654;23.360;2023-04-23T01:04:19;94385.31;;;10.56;74.13
6389;BME280;3227;42.654;23.360;2023-04-23T01:06:47;94387.06;;;10.54;74.75
6389;BME280;3227;42.654;23.360;2023-04-23T01:09:14;94319.66;;;10.09;74.56
6389;BME280;3227;42.654;23.360;2023-04-23T01:11:44;94390.47;;;10.51;74.82
6389;BME280;3227;42.654;23.360;2023-04-23T01:14:12;94387.91;;;10.48;74.91
6389;BME280;3227;42.654;23.360;2023-04-23T01:16:39;94381.06;;;10.53;75.13
6389;BME280;3227;42.654;23.360;2023-04-23T01:19:07;94387.03;;;10.60;74.68
6389;BME280;3227;42.654;23.360;2023-04-23T01:21:35;94381.06;;;10.58;75.18
6389;BME280;3227;42.654;23.360;2023-04-23T01:24:07;94381.91;;;10.61;75.02
6389;BME280;3227;42.654;23.360;2023-04-23T01:26:34;94385.31;;;10.62;74.33
6389;BME280;3227;42.654;23.360;2023-04-23T01:29:02;94339.31;;;10.28;74.96
6389;BME280;3227;42.654;23.360;2023-04-23T01:31:29;94381.91;;;10.60;74.77
6389;BME280;3227;42.654;23.360;2023-04-23T01:33:56;94381.94;;;10.54;75.26
6389;BME280;3227;42.654;23.360;2023-04-23T01:36:24;94387.06;;;10.49;75.35
6389;BME280;3227;42.654;23.360;2023-04-23T01:38:51;94386.19;;;10.53;75.68
6389;BME280;3227;42.654;23.360;2023-04-23T01:41:19;94374.28;;;10.37;75.44
6389;BME280;3227;42.654;23.360;2023-04-23T01:43:46;94294.97;;;9.85;75.46
6389;BME280;3227;42.654;23.360;2023-04-23T01:46:13;94389.66;;;10.34;76.55
6389;BME280;3227;42.654;23.360;2023-04-23T01:48:40;94394.78;;;10.37;75.65
6389;BME280;3227;42.654;23.360;2023-04-23T01:51:07;94393.06;;;10.36;74.43
6389;BME280;3227;42.654;23.360;2023-04-23T01:53:34;94398.19;;;10.33;74.18
6389;BME280;3227;42.654;23.360;2023-04-23T01:56:01;94396.50;;;10.29;74.92
6389;BME280;3227;42.654;23.360;2023-04-23T01:58:29;94387.09;;;10.11;75.65
6389;BME280;3227;42.654;23.360;2023-04-23T02:00:56;94401.63;;;10.20;75.39
6389;BME280;3227;42.654;23.360;2023-04-23T02:03:23;94401.59;;;10.23;76.09
6389;BME280;3227;42.654;23.360;2023-04-23T02:05:51;94400.75;;;10.22;75.64
6389;BME280;3227;42.654;23.360;2023-04-23T02:08:19;94399.06;;;10.27;75.51
6389;BME280;3227;42.654;23.360;2023-04-23T02:10:46;94394.78;;;10.28;75.45
6389;BME280;3227;42.654;23.360;2023-04-23T02:13:12;94399.06;;;10.29;76.15
6389;BME280;3227;42.654;23.360;2023-04-23T02:15:41;94395.63;;;10.18;75.41
6389;BME280;3227;42.654;23.360;2023-04-23T02:18:08;94357.22;;;9.69;75.83
6389;BME280;3227;42.654;23.360;2023-04-23T02:20:36;94405.84;;;9.87;75.90
6389;BME280;3227;42.654;23.360;2023-04-23T02:23:05;94399.00;;;9.74;77.40
6389;BME280;3227;42.654;23.360;2023-04-23T02:25:32;94397.31;;;9.61;78.49
6389;BME280;3227;42.654;23.360;2023-04-23T02:27:59;94401.53;;;9.56;79.49
6389;BME280;3227;42.654;23.360;2023-04-23T02:30:30;94401.53;;;9.50;80.38
6389;BME280;3227;42.654;23.360;2023-04-23T02:32:59;94405.78;;;9.49;80.85
6389;BME280;3227;42.654;23.360;2023-04-23T02:35:25;94404.94;;;9.49;80.97
6389;BME280;3227;42.654;23.360;2023-04-23T02:37:52;94400.69;;;9.59;80.84
6389;BME280;3227;42.654;23.360;2023-04-23T02:40:19;94395.59;;;9.66;80.45
6389;BME280;3227;42.654;23.360;2023-04-23T02:42:46;94399.00;;;9.74;80.29
6389;BME280;3227;42.654;23.360;2023-04-23T02:45:13;94396.47;;;9.83;80.35
6389;BME280;3227;42.654;23.360;2023-04-23T02:47:40;94376.00;;;9.77;79.83
6389;BME280;3227;42.654;23.360;2023-04-23T02:50:08;94399.00;;;9.91;80.01
6389;BME280;3227;42.654;23.360;2023-04-23T02:52:35;94398.16;;;9.90;79.85
6389;BME280;3227;42.654;23.360;2023-04-23T02:55:02;94388.78;;;9.86;79.15
6389;BME280;3227;42.654;23.360;2023-04-23T02:57:29;94390.50;;;9.87;79.26
6389;BME280;3227;42.654;23.360;2023-04-23T02:59:56;94401.59;;;9.86;79.80
6389;BME280;3227;42.654;23.360;2023-04-23T03:02:23;94402.41;;;9.88;79.54
6389;BME280;3227;42.654;23.360;2023-04-23T03:04:50;94404.16;;;9.86;79.12
6389;BME280;3227;42.654;23.360;2023-04-23T03:07:18;94410.09;;;9.88;79.22
6389;BME280;3227;42.654;23.360;2023-04-23T03:09:45;94410.13;;;9.79;79.40
6389;BME280;3227;42.654;23.360;2023-04-23T03:12:11;94410.13;;;9.79;79.57
6389;BME280;3227;42.654;23.360;2023-04-23T03:14:38;94407.53;;;9.81;79.63
6389;BME280;3227;42.654;23.360;2023-04-23T03:17:05;94343.53;;;9.40;79.33
6389;BME280;3227;42.654;23.360;2023-04-23T03:19:32;94414.38;;;9.83;79.02
6389;BME280;3227;42.654;23.360;2023-04-23T03:21:58;94412.66;;;9.82;79.02
6389;BME280;3227;42.654;23.360;2023-04-23T03:24:29;94422.03;;;9.80;79.43
6389;BME280;3227;42.654;23.360;2023-04-23T03:26:57;94412.63;;;9.72;78.83
6389;BME280;3227;42.654;23.360;2023-04-23T03:29:23;94422.03;;;9.74;78.56
6389;BME280;3227;42.654;23.360;2023-04-23T03:31:50;94419.47;;;9.70;78.34
6389;BME280;3227;42.654;23.360;2023-04-23T03:34:17;94427.16;;;9.71;78.24
6389;BME280;3227;42.654;23.360;2023-04-23T03:36:44;94424.59;;;9.67;78.41
6389;BME280;3227;42.654;23.360;2023-04-23T03:39:13;94419.47;;;9.65;78.62
6389;BME280;3227;42.654;23.360;2023-04-23T03:41:41;94410.94;;;9.63;78.82
6389;BME280;3227;42.654;23.360;2023-04-23T03:44:08;94422.03;;;9.80;78.41
6389;BME280;3227;42.654;23.360;2023-04-23T03:46:34;94421.19;;;9.90;77.78
6389;BME280;3227;42.654;23.360;2023-04-23T03:49:01;94422.06;;;9.94;77.80
6389;BME280;3227;42.654;23.360;2023-04-23T03:51:28;94428.03;;;9.95;77.69
6389;BME280;3227;42.654;23.360;2023-04-23T03:53:56;94428.03;;;10.04;77.29
6389;BME280;3227;42.654;23.360;2023-04-23T03:56:22;94366.59;;;9.72;76.88
6389;BME280;3227;42.654;23.360;2023-04-23T03:58:51;94439.13;;;10.15;77.20
6389;BME280;3227;42.654;23.360;2023-04-23T04:01:18;94439.16;;;10.22;76.55
6389;BME280;3227;42.654;23.360;2023-04-23T04:03:44;94436.59;;;10.24;76.81
6389;BME280;3227;42.654;23.360;2023-04-23T04:06:11;94436.59;;;10.35;75.45
6389;BME280;3227;42.654;23.360;2023-04-23T04:08:38;94436.59;;;10.42;74.99
6389;BME280;3227;42.654;23.360;2023-04-23T04:11:05;94434.88;;;10.47;75.37
6389;BME280;3227;42.654;23.360;2023-04-23T04:13:32;94440.84;;;10.49;74.58
6389;BME280;3227;42.654;23.360;2023-04-23T04:16:00;94445.94;;;10.55;74.64
6389;BME280;3227;42.654;23.360;2023-04-23T04:18:27;94433.06;;;10.87;74.70
6389;BME280;3227;42.654;23.360;2023-04-23T04:20:54;94454.22;;;11.45;72.12
6389;BME280;3227;42.654;23.360;2023-04-23T04:23:21;94435.25;;;11.71;70.54
6389;BME280;3227;42.654;23.360;2023-04-23T04:25:47;94441.91;;;12.07;68.58
6389;BME280;3227;42.654;23.360;2023-04-23T04:28:15;94443.44;;;12.28;67.75
6389;BME280;3227;42.654;23.360;2023-04-23T04:30:42;94448.34;;;12.58;66.80
6389;BME280;3227;42.654;23.360;2023-04-23T04:33:10;94448.78;;;13.00;65.32
6389;BME280;3227;42.654;23.360;2023-04-23T04:35:39;94452.59;;;13.43;64.21
6389;BME280;3227;42.654;23.360;2023-04-23T04:38:06;94462.31;;;13.87;62.39
6389;BME280;3227;42.654;23.360;2023-04-23T04:40:33;94453.06;;;14.32;60.48
6389;BME280;3227;42.654;23.360;2023-04-23T04:42:59;94460.09;;;14.76;59.25
6389;BME280;3227;42.654;23.360;2023-04-23T04:45:26;94470.72;;;15.07;58.01
6389;BME280;3227;42.654;23.360;2023-04-23T04:47:53;94463.25;;;15.38;57.12
6389;BME280;3227;42.654;23.360;2023-04-23T04:50:21;94467.94;;;15.64;55.88
6389;BME280;3227;42.654;23.360;2023-04-23T04:52:49;94481.31;;;15.83;55.09
6389;BME280;3227;42.654;23.360;2023-04-23T04:55:15;94469.91;;;15.91;55.69
6389;BME280;3227;42.654;23.360;2023-04-23T04:57:42;94469.50;;;16.11;55.11
6389;BME280;3227;42.654;23.360;2023-04-23T05:00:20;94463.19;;;16.23;54.28
6389;BME280;3227;42.654;23.360;2023-04-23T05:02:48;94472.00;;;16.14;54.56
6389;BME280;3227;42.654;23.360;2023-04-23T05:05:15;94447.38;;;15.58;55.38
6389;BME280;3227;42.654;23.360;2023-04-23T05:07:44;94472.59;;;15.44;56.66
6389;BME280;3227;42.654;23.360;2023-04-23T05:10:11;94457.81;;;15.53;56.28
6389;BME280;3227;42.654;23.360;2023-04-23T05:12:39;94473.59;;;15.37;56.81
6389;BME280;3227;42.654;23.360;2023-04-23T05:15:07;94478.38;;;15.13;57.89
6389;BME280;3227;42.654;23.360;2023-04-23T05:17:34;94476.09;;;14.95;58.35
6389;BME280;3227;42.654;23.360;2023-04-23T05:20:07;94475.38;;;14.89;59.06
6389;BME280;3227;42.654;23.360;2023-04-23T05:22:35;94469.94;;;14.55;59.98
6389;BME280;3227;42.654;23.360;2023-04-23T05:25:05;94449.06;;;14.68;60.07
6389;BME280;3227;42.654;23.360;2023-04-23T05:27:32;94460.03;;;14.81;59.56
6389;BME280;3227;42.654;23.360;2023-04-23T05:29:59;94474.81;;;14.70;60.80
6389;BME280;3227;42.654;23.360;2023-04-23T05:32:26;94472.34;;;14.64;60.63
6389;BME280;3227;42.654;23.360;2023-04-23T05:34:53;94461.59;;;14.36;61.60
6389;BME280;3227;42.654;23.360;2023-04-23T05:37:20;94375.22;;;13.55;63.04
6389;BME280;3227;42.654;23.360;2023-04-23T05:39:47;94481.56;;;14.22;63.12
6389;BME280;3227;42.654;23.360;2023-04-23T05:42:15;94480.50;;;14.36;62.48
6389;BME280;3227;42.654;23.360;2023-04-23T05:44:42;94464.03;;;14.46;62.42
6389;BME280;3227;42.654;23.360;2023-04-23T05:47:11;94487.41;;;14.90;60.63
6389;BME280;3227;42.654;23.360;2023-04-23T05:49:38;94477.22;;;14.82;60.64
6389;BME280;3227;42.654;23.360;2023-04-23T05:52:06;94483.09;;;14.33;62.78
6389;BME280;3227;42.654;23.360;2023-04-23T05:54:32;94482.75;;;14.58;62.56
6389;BME280;3227;42.654;23.360;2023-04-23T05:56:59;94467.66;;;14.87;60.79
6389;BME280;3227;42.654;23.360;2023-04-23T05:59:28;94483.69;;;14.54;61.58
6389;BME280;3227;42.654;23.360;2023-04-23T06:01:55;94478.16;;;14.20;62.32
6389;BME280;3227;42.654;23.360;2023-04-23T06:04:22;94486.00;;;14.14;63.71
6389;BME280;3227;42.654;23.360;2023-04-23T06:06:49;94488.25;;;14.33;63.63
6389;BME280;3227;42.654;23.360;2023-04-23T06:09:16;94485.50;;;14.49;63.44
6389;BME280;3227;42.654;23.360;2023-04-23T06:11:43;94486.81;;;14.74;62.41
6389;BME280;3227;42.654;23.360;2023-04-23T06:14:09;94467.59;;;14.90;60.70
6389;BME280;3227;42.654;23.360;2023-04-23T06:16:38;94489.16;;;15.32;60.90
6389;BME280;3227;42.654;23.360;2023-04-23T06:19:04;94482.31;;;14.83;61.43
6389;BME280;3227;42.654;23.360;2023-04-23T06:21:31;94486.63;;;14.83;62.31
6389;BME280;3227;42.654;23.360;2023-04-23T06:23:58;94430.25;;;15.09;61.49
6389;BME280;3227;42.654;23.360;2023-04-23T06:26:25;94479.50;;;15.88;58.69
6389;BME280;3227;42.654;23.360;2023-04-23T06:28:52;94481.38;;;16.20;59.20
6389;BME280;3227;42.654;23.360;2023-04-23T06:31:18;94477.81;;;16.62;57.64
6389;BME280;3227;42.654;23.360;2023-04-23T06:33:47;94478.28;;;16.41;56.64
6389;BME280;3227;42.654;23.360;2023-04-23T06:36:14;94485.16;;;16.42;57.25
6389;BME280;3227;42.654;23.360;2023-04-23T06:38:40;94480.69;;;16.12;57.92
6389;BME280;3227;42.654;23.360;2023-04-23T06:41:10;94480.03;;;16.02;58.43
6389;BME280;3227;42.654;23.360;2023-04-23T06:43:37;94463.91;;;15.91;58.78
6389;BME280;3227;42.654;23.360;2023-04-23T06:46:03;94482.94;;;15.88;59.22
6389;BME280;3227;42.654;23.360;2023-04-23T06:48:35;94479.22;;;16.00;58.93
6389;BME280;3227;42.654;23.360;2023-04-23T06:51:04;94398.41;;;15.55;58.72
6389;BME280;3227;42.654;23.360;2023-04-23T06:53:31;94480.06;;;16.01;59.06
6389;BME280;3227;42.654;23.360;2023-04-23T06:55:58;94480.00;;;16.04;59.08
6389;BME280;3227;42.654;23.360;2023-04-23T06:58:25;94476.97;;;15.85;59.66
6389;BME280;3227;42.654;23.360;2023-04-23T07:00:56;94393.38;;;15.47;60.16
6389;BME280;3227;42.654;23.360;2023-04-23T07:03:24;94474.34;;;15.86;60.21
6389;BME280;3227;42.654;23.360;2023-04-23T07:05:51;94461.91;;;16.04;60.10
6389;BME280;3227;42.654;23.360;2023-04-23T07:08:20;94481.66;;;16.45;58.17
6389;BME280;3227;42.654;23.360;2023-04-23T07:10:47;94470.91;;;16.24;59.53
6389;BME280;3227;42.654;23.360;2023-04-23T07:13:15;94474.00;;;16.40;58.83
6389;BME280;3227;42.654;23.360;2023-04-23T07:15:43;94481.53;;;15.72;60.62
6389;BME280;3227;42.654;23.360;2023-04-23T07:18:09;94481.50;;;15.74;61.03
6389;BME280;3227;42.654;23.360;2023-04-23T07:20:36;94463.81;;;15.55;62.04
6389;BME280;3227;42.654;23.360;2023-04-23T07:23:03;94466.09;;;15.69;61.57
6389;BME280;3227;42.654;23.360;2023-04-23T07:25:32;94470.72;;;15.95;61.50
6389;BME280;3227;42.654;23.360;2023-04-23T07:27:58;94472.88;;;15.73;61.48
6389;BME280;3227;42.654;23.360;2023-04-23T07:30:26;94473.03;;;15.67;61.98
6389;BME280;3227;42.654;23.360;2023-04-23T07:32:53;94472.59;;;15.88;61.56
6389;BME280;3227;42.654;23.360;2023-04-23T07:35:20;94472.59;;;15.88;60.81
6389;BME280;3227;42.654;23.360;2023-04-23T07:37:47;94443.66;;;16.11;60.74
6389;BME280;3227;42.654;23.360;2023-04-23T07:40:19;94467.81;;;16.83;58.76
6389;BME280;3227;42.654;23.360;2023-04-23T07:42:49;94475.06;;;16.70;57.65
6389;BME280;3227;42.654;23.360;2023-04-23T07:45:16;94464.41;;;16.45;58.04
6389;BME280;3227;42.654;23.360;2023-04-23T07:47:43;94469.84;;;16.33;59.61
6389;BME280;3227;42.654;23.360;2023-04-23T07:50:10;94463.31;;;16.55;58.38
6389;BME280;3227;42.654;23.360;2023-04-23T07:52:38;94471.78;;;16.60;58.07
6389;BME280;3227;42.654;23.360;2023-04-23T07:55:05;94474.66;;;15.73;60.68
6389;BME280;3227;42.654;23.360;2023-04-23T07:57:32;94474.09;;;15.57;61.72
6389;BME280;3227;42.654;23.360;2023-04-23T08:00:00;94483.63;;;15.52;62.35
6389;BME280;3227;42.654;23.360;2023-04-23T08:02:27;94469.31;;;15.36;62.91
6389;BME280;3227;42.654;23.360;2023-04-23T08:04:54;94454.88;;;15.72;61.68
6389;BME280;3227;42.654;23.360;2023-04-23T08:07:21;94473.78;;;16.12;60.19
6389;BME280;3227;42.654;23.360;2023-04-23T08:09:47;94466.03;;;16.12;60.19
6389;BME280;3227;42.654;23.360;2023-04-23T08:12:14;94467.44;;;16.25;59.30
6389;BME280;3227;42.654;23.360;2023-04-23T08:14:43;94469.44;;;16.51;58.16
6389;BME280;3227;42.654;23.360;2023-04-23T08:17:13;94453.41;;;16.72;57.65
6389;BME280;3227;42.654;23.360;2023-04-23T08:19:39;94475.44;;;16.52;57.12
6389;BME280;3227;42.654;23.360;2023-04-23T08:22:06;94461.84;;;16.44;57.69
6389;BME280;3227;42.654;23.360;2023-04-23T08:24:34;94460.81;;;16.88;56.97
6389;BME280;3227;42.654;23.360;2023-04-23T08:27:00;94470.22;;;17.23;55.77
6389;BME280;3227;42.654;23.360;2023-04-23T08:29:27;94464.72;;;17.35;53.89
6389;BME280;3227;42.654;23.360;2023-04-23T08:31:54;94452.53;;;17.38;53.75
6389;BME280;3227;42.654;23.360;2023-04-23T08:34:22;94451.75;;;17.67;54.20
6389;BME280;3227;42.654;23.360;2023-04-23T08:36:49;94445.34;;;17.17;54.50
6389;BME280;3227;42.654;23.360;2023-04-23T08:39:16;94451.81;;;17.33;54.70
6389;BME280;3227;42.654;23.360;2023-04-23T08:41:44;94431.91;;;17.35;53.81
6389;BME280;3227;42.654;23.360;2023-04-23T08:44:17;94396.25;;;17.45;53.16
6389;BME280;3227;42.654;23.360;2023-04-23T08:46:45;94430.34;;;17.90;52.36
6389;BME280;3227;42.654;23.360;2023-04-23T08:49:44;94450.06;;;17.34;53.04
6389;BME280;3227;42.654;23.360;2023-04-23T08:52:14;94439.13;;;16.92;54.22
6389;BME280;3227;42.654;23.360;2023-04-23T08:54:46;94441.31;;;17.07;54.22
6389;BME280;3227;42.654;23.360;2023-04-23T08:57:15;94435.00;;;17.17;54.92
6389;BME280;3227;42.654;23.360;2023-04-23T08:59:44;94443.72;;;17.45;53.08
6389;BME280;3227;42.654;23.360;2023-04-23T09:02:11;94432.00;;;17.00;54.07
6389;BME280;3227;42.654;23.360;2023-04-23T09:04:40;94435.56;;;16.96;53.48
6389;BME280;3227;42.654;23.360;2023-04-23T09:07:08;94438.38;;;16.88;53.51
6389;BME280;3227;42.654;23.360;2023-04-23T09:09:36;94431.28;;;16.24;55.32
6389;BME280;3227;42.654;23.360;2023-04-23T09:12:05;94438.13;;;15.89;56.88
6389;BME280;3227;42.654;23.360;2023-04-23T09:14:32;94425.44;;;16.16;56.61
6389;BME280;3227;42.654;23.360;2023-04-23T09:17:00;94411.13;;;16.38;55.05
6389;BME280;3227;42.654;23.360;2023-04-23T09:19:27;94429.84;;;16.83;54.70
6389;BME280;3227;42.654;23.360;2023-04-23T09:21:55;94402.13;;;16.88;53.29
6389;BME280;3227;42.654;23.360;2023-04-23T09:24:23;94419.00;;;17.03;53.05
6389;BME280;3227;42.654;23.360;2023-04-23T09:26:51;94426.97;;;16.60;54.18
6389;BME280;3227;42.654;23.360;2023-04-23T09:29:21;94368.50;;;15.82;54.84
6389;BME280;3227;42.654;23.360;2023-04-23T09:31:50;94386.97;;;16.04;55.61
6389;BME280;3227;42.654;23.360;2023-04-23T09:34:18;94398.88;;;16.46;54.88
6389;BME280;3227;42.654;23.360;2023-04-23T09:36:47;94420.19;;;16.90;53.88
6389;BME280;3227;42.654;23.360;2023-04-23T09:39:16;94423.00;;;17.13;54.09
6389;BME280;3227;42.654;23.360;2023-04-23T09:41:45;94386.91;;;17.08;51.99
6389;BME280;3227;42.654;23.360;2023-04-23T09:44:16;94406.81;;;17.37;51.55
6389;BME280;3227;42.654;23.360;2023-04-23T09:46:44;94395.13;;;17.54;51.03
6389;BME280;3227;42.654;23.360;2023-04-23T09:49:11;94396.50;;;17.67;50.27
6389;BME280;3227;42.654;23.360;2023-04-23T09:51:39;94399.25;;;17.61;49.42
6389;BME280;3227;42.654;23.360;2023-04-23T09:54:10;94326.81;;;16.97;49.10
6389;BME280;3227;42.654;23.360;2023-04-23T09:56:38;94390.81;;;17.23;48.48
6389;BME280;3227;42.654;23.360;2023-04-23T09:59:20;94395.34;;;17.15;49.35
6389;BME280;3227;42.654;23.360;2023-04-23T10:01:47;94380.16;;;17.03;50.27
6389;BME280;3227;42.654;23.360;2023-04-23T10:04:17;94382.78;;;17.32;49.54
6389;BME280;3227;42.654;23.360;2023-04-23T10:06:44;94377.53;;;17.65;49.36
6389;BME280;3227;42.654;23.360;2023-04-23T10:09:11;94378.34;;;17.67;47.71
6389;BME280;3227;42.654;23.360;2023-04-23T10:11:39;94376.50;;;17.41;48.50
6389;BME280;3227;42.654;23.360;2023-04-23T10:14:07;94376.81;;;17.60;48.35
6389;BME280;3227;42.654;23.360;2023-04-23T10:16:37;94383.06;;;17.82;46.00
6389;BME280;3227;42.654;23.360;2023-04-23T10:19:06;94372.88;;;18.04;45.91
6389;BME280;3227;42.654;23.360;2023-04-23T10:21:36;94378.22;;;18.27;44.19
6389;BME280;3227;42.654;23.360;2023-04-23T10:24:05;94367.75;;;18.29;44.02
6389;BME280;3227;42.654;23.360;2023-04-23T10:26:33;94365.09;;;18.32;43.48
6389;BME280;3227;42.654;23.360;2023-04-23T10:29:13;94363.59;;;18.51;43.12
6389;BME280;3227;42.654;23.360;2023-04-23T10:31:41;94351.25;;;18.59;42.70
6389;BME280;3227;42.654;23.360;2023-04-23T10:34:08;94319.56;;;18.48;43.27
6389;BME280;3227;42.654;23.360;2023-04-23T10:36:36;94355.22;;;18.69;42.42
6389;BME280;3227;42.654;23.360;2023-04-23T10:39:03;94345.13;;;18.34;43.80
6389;BME280;3227;42.654;23.360;2023-04-23T10:41:34;94335.06;;;18.24;44.46
6389;BME280;3227;42.654;23.360;2023-04-23T10:44:02;94351.56;;;18.22;44.01
6389;BME280;3227;42.654;23.360;2023-04-23T10:46:30;94333.06;;;18.06;44.21
6389;BME280;3227;42.654;23.360;2023-04-23T10:49:10;94329.84;;;17.98;42.09
6389;BME280;3227;42.654;23.360;2023-04-23T10:51:39;94329.66;;;18.04;42.56
6389;BME280;3227;42.654;23.360;2023-04-23T10:54:08;94328.72;;;18.07;42.63
6389;BME280;3227;42.654;23.360;2023-04-23T10:56:37;94322.94;;;17.71;44.19
6389;BME280;3227;42.654;23.360;2023-04-23T10:59:05;94320.78;;;17.85;43.21
6389;BME280;3227;42.654;23.360;2023-04-23T11:01:33;94323.69;;;18.02;42.97
6389;BME280;3227;42.654;23.360;2023-04-23T11:04:18;94315.97;;;18.01;41.71
6389;BME280;3227;42.654;23.360;2023-04-23T11:06:56;94307.84;;;18.11;42.26
6389;BME280;3227;42.654;23.360;2023-04-23T11:09:38;94317.78;;;18.50;41.93
6389;BME280;3227;42.654;23.360;2023-04-23T11:12:08;94253.16;;;18.44;41.31
6389;BME280;3227;42.654;23.360;2023-04-23T11:14:41;94307.47;;;18.98;39.96
6389;BME280;3227;42.654;23.360;2023-04-23T11:17:10;94296.84;;;19.04;39.07
6389;BME280;3227;42.654;23.360;2023-04-23T11:19:40;94295.63;;;19.14;38.90
6389;BME280;3227;42.654;23.360;2023-04-23T11:22:12;94299.06;;;19.15;39.75
6389;BME280;3227;42.654;23.360;2023-04-23T11:24:40;94274.31;;;19.28;39.74
6389;BME280;3227;42.654;23.360;2023-04-23T11:27:09;94276.53;;;19.38;38.38
6389;BME280;3227;42.654;23.360;2023-04-23T11:29:37;94287.75;;;19.39;37.79
6389;BME280;3227;42.654;23.360;2023-04-23T11:32:05;94272.09;;;19.19;38.52
6389;BME280;3227;42.654;23.360;2023-04-23T11:34:35;94263.91;;;19.28;37.96
6389;BME280;3227;42.654;23.360;2023-04-23T11:37:03;94289.56;;;19.37;38.52
6389;BME280;3227;42.654;23.360;2023-04-23T11:39:31;94281.41;;;19.46;38.15
6389;BME280;3227;42.654;23.360;2023-04-23T11:41:58;94253.09;;;19.17;37.58
6389;BME280;3227;42.654;23.360;2023-04-23T11:44:27;94276.25;;;19.23;37.54
6389;BME280;3227;42.654;23.360;2023-04-23T11:46:55;94252.81;;;19.24;36.38
6389;BME280;3227;42.654;23.360;2023-04-23T11:49:30;94275.06;;;19.55;34.98
6389;BME280;3227;42.654;23.360;2023-04-23T11:51:58;94241.88;;;19.38;34.62
6389;BME280;3227;42.654;23.360;2023-04-23T11:54:28;94256.94;;;19.07;35.10
6389;BME280;3227;42.654;23.360;2023-04-23T11:56:55;94259.44;;;19.10;35.17
6389;BME280;3227;42.654;23.360;2023-04-23T11:59:24;94223.28;;;19.27;34.78
6389;BME280;3227;42.654;23.360;2023-04-23T12:01:53;94244.31;;;19.66;35.48
6389;BME280;3227;42.654;23.360;2023-04-23T12:04:21;94257.47;;;19.61;34.35
6389;BME280;3227;42.654;23.360;2023-04-23T12:06:50;94267.69;;;19.66;34.23
6389;BME280;3227;42.654;23.360;2023-04-23T12:09:19;94249.44;;;19.67;34.57
6389;BME280;3227;42.654;23.360;2023-04-23T12:11:48;94258.25;;;19.63;33.61
6389;BME280;3227;42.654;23.360;2023-04-23T12:14:18;94249.16;;;18.83;32.97
6389;BME280;3227;42.654;23.360;2023-04-23T12:16:48;94252.97;;;18.48;33.79
6389;BME280;3227;42.654;23.360;2023-04-23T12:19:18;94200.03;;;18.29;33.56
6389;BME280;3227;42.654;23.360;2023-04-23T12:21:49;94201.34;;;18.41;32.79
6389;BME280;3227;42.654;23.360;2023-04-23T12:24:19;94246.44;;;18.86;33.10
6389;BME280;3227;42.654;23.360;2023-04-23T12:26:51;94242.78;;;18.69;33.58
6389;BME280;3227;42.654;23.360;2023-04-23T12:29:19;94235.66;;;18.49;33.71
6389;BME280;3227;42.654;23.360;2023-04-23T12:31:46;94246.03;;;18.49;33.51
6389;BME280;3227;42.654;23.360;2023-04-23T12:34:13;94246.66;;;18.31;34.66
6389;BME280;3227;42.654;23.360;2023-04-23T12:36:43;94248.84;;;18.43;35.11
6389;BME280;3227;42.654;23.360;2023-04-23T12:39:23;94236.72;;;18.43;34.66
6389;BME280;3227;42.654;23.360;2023-04-23T12:41:53;94239.19;;;18.46;34.37
6389;BME280;3227;42.654;23.360;2023-04-23T12:44:21;94233.66;;;18.57;34.12
6389;BME280;3227;42.654;23.360;2023-04-23T12:46:52;94235.13;;;18.64;34.26
6389;BME280;3227;42.654;23.360;2023-04-23T12:49:25;94223.47;;;18.51;33.68
6389;BME280;3227;42.654;23.360;2023-04-23T12:51:52;94234.97;;;18.44;33.68
6389;BME280;3227;42.654;23.360;2023-04-23T12:54:23;94176.09;;;18.21;33.34
6389;BME280;3227;42.654;23.360;2023-04-23T12:56:52;94213.97;;;18.27;33.31
6389;BME280;3227;42.654;23.360;2023-04-23T12:59:19;94236.34;;;18.29;32.54
6389;BME280;3227;42.654;23.360;2023-04-23T13:01:46;94230.69;;;18.43;33.11
6389;BME280;3227;42.654;23.360;2023-04-23T13:04:13;94026.88;;;17.39;32.44
6389;BME280;3227;42.654;23.360;2023-04-23T13:06:40;94227.31;;;18.66;32.86
6389;BME280;3227;42.654;23.360;2023-04-23T13:09:08;94220.94;;;18.74;32.27
6389;BME280;3227;42.654;23.360;2023-04-23T13:11:36;94194.66;;;18.83;31.99
6389;BME280;3227;42.654;23.360;2023-04-23T13:14:04;94225.88;;;19.04;32.07
6389;BME280;3227;42.654;23.360;2023-04-23T13:16:31;94216.81;;;19.15;31.57